createdAt,value
2023-05-06T00:00:29.325Z,2.00
2023-05-06T00:02:56.948Z,1.92
2023-05-06T00:05:24.166Z,2.30
2023-05-06T00:07:51.253Z,2.10
2023-05-06T00:10:18.404Z,2.00
2023-05-06T00:12:45.870Z,1.73
2023-05-06T00:15:12.966Z,2.47
2023-05-06T00:17:43.532Z,2.03
2023-05-06T00:20:11.487Z,2.10
2023-05-06T00:22:38.672Z,2.08
2023-05-06T00:25:06.214Z,2.05
2023-05-06T00:27:34.124Z,2.10
2023-05-06T00:30:01.174Z,2.05
2023-05-06T00:32:28.347Z,2.08
2023-05-06T00:34:55.994Z,1.77
2023-05-06T00:37:23.076Z,2.08
2023-05-06T00:39:50.136Z,2.30
2023-05-06T00:42:17.345Z,2.00
2023-05-06T00:44:44.387Z,2.08
2023-05-06T00:47:11.484Z,1.55
2023-05-06T00:49:38.597Z,1.90
2023-05-06T00:52:05.970Z,2.40
2023-05-06T00:54:33.127Z,1.75
2023-05-06T00:57:00.354Z,1.70
2023-05-06T00:59:27.749Z,1.75
2023-05-06T01:01:55.076Z,1.80
2023-05-06T01:04:24.328Z,1.92
2023-05-06T01:06:57.040Z,2.15
2023-05-06T01:09:51.449Z,1.90
2023-05-06T01:15:01.823Z,1.50
2023-05-06T01:17:32.538Z,1.95
2023-05-06T01:20:01.946Z,2.03
2023-05-06T01:22:31.440Z,1.90
2023-05-06T01:24:58.557Z,1.70
2023-05-06T01:27:25.656Z,1.98
2023-05-06T01:29:52.756Z,1.60
2023-05-06T01:32:19.883Z,1.60
2023-05-06T01:35:03.408Z,1.90
2023-05-06T01:38:28.472Z,1.77
2023-05-06T01:40:57.428Z,1.52
2023-05-06T01:43:28.749Z,1.70
2023-05-06T01:45:57.547Z,1.80
2023-05-06T01:48:32.670Z,2.35
2023-05-06T01:51:02.058Z,1.75
2023-05-06T01:53:29.083Z,1.70
2023-05-06T01:55:56.194Z,1.70
2023-05-06T01:58:23.255Z,1.58
2023-05-06T02:00:50.318Z,2.63
2023-05-06T02:03:17.554Z,1.73
2023-05-06T02:05:44.828Z,1.80
2023-05-06T02:08:11.835Z,1.67
2023-05-06T02:10:38.982Z,1.92
2023-05-06T02:13:06.200Z,2.35
2023-05-06T02:15:33.346Z,1.60
2023-05-06T02:18:00.529Z,1.52
2023-05-06T02:20:27.652Z,1.35
2023-05-06T02:22:54.740Z,1.27
2023-05-06T02:25:23.498Z,1.55
2023-05-06T02:27:50.625Z,1.60
2023-05-06T02:30:17.663Z,2.13
2023-05-06T02:32:44.724Z,2.40
2023-05-06T02:35:12.093Z,3.85
2023-05-06T02:37:39.280Z,2.10
2023-05-06T02:40:07.104Z,3.38
2023-05-06T02:42:37.420Z,1.98
2023-05-06T02:45:04.988Z,1.65
2023-05-06T02:47:32.094Z,2.08
2023-05-06T02:49:59.277Z,1.67
2023-05-06T02:52:26.485Z,1.20
2023-05-06T02:54:53.506Z,1.63
2023-05-06T02:57:20.626Z,1.88
2023-05-06T02:59:47.833Z,2.17
2023-05-06T03:02:14.938Z,2.58
2023-05-06T03:04:44.055Z,2.17
2023-05-06T03:07:11.304Z,2.33
2023-05-06T03:09:38.375Z,2.00
2023-05-06T03:12:06.486Z,2.50
2023-05-06T03:14:33.625Z,2.00
2023-05-06T03:17:00.753Z,2.03
2023-05-06T03:19:27.872Z,1.73
2023-05-06T03:21:54.981Z,1.98
2023-05-06T03:24:21.973Z,1.90
2023-05-06T03:26:49.072Z,2.67
2023-05-06T03:29:16.249Z,1.50
2023-05-06T03:31:43.383Z,1.17
2023-05-06T03:34:10.497Z,1.50
2023-05-06T03:36:37.595Z,1.17
2023-05-06T03:39:05.362Z,1.50
2023-05-06T03:41:32.607Z,1.75
2023-05-06T03:43:59.710Z,1.95
2023-05-06T03:46:26.841Z,2.08
2023-05-06T03:48:54.041Z,1.90
2023-05-06T03:51:21.249Z,2.00
2023-05-06T03:53:48.951Z,2.00
2023-05-06T03:56:18.419Z,2.13
2023-05-06T03:58:45.489Z,1.80
2023-05-06T04:01:12.517Z,2.22
2023-05-06T04:03:39.656Z,2.03
2023-05-06T04:06:08.098Z,2.20
2023-05-06T04:08:35.195Z,2.08
2023-05-06T04:11:09.012Z,2.03
2023-05-06T04:16:03.225Z,1.88
2023-05-06T04:18:30.907Z,1.65
2023-05-06T04:20:57.922Z,1.50
2023-05-06T04:23:24.929Z,1.40
2023-05-06T04:25:52.373Z,1.80
2023-05-06T04:28:19.382Z,1.98
2023-05-06T04:30:47.056Z,1.70
2023-05-06T04:33:14.327Z,1.27
2023-05-06T04:35:41.707Z,1.30
2023-05-06T04:38:09.611Z,1.40
2023-05-06T04:40:39.681Z,1.20
2023-05-06T04:43:06.768Z,1.38
2023-05-06T04:45:34.779Z,1.30
2023-05-06T04:48:01.948Z,1.45
2023-05-06T04:50:29.067Z,1.25
2023-05-06T04:52:56.340Z,1.48
2023-05-06T04:55:23.514Z,1.40
2023-05-06T04:57:50.616Z,1.60
2023-05-06T05:00:18.348Z,1.83
2023-05-06T05:02:45.484Z,1.60
2023-05-06T05:05:13.085Z,1.70
2023-05-06T05:07:40.159Z,1.60
2023-05-06T05:10:08.540Z,1.55
2023-05-06T05:12:36.293Z,1.50
2023-05-06T05:15:03.883Z,1.45
2023-05-06T05:17:30.992Z,1.50
2023-05-06T05:19:58.134Z,1.60
2023-05-06T05:22:25.278Z,1.40
2023-05-06T05:24:52.599Z,1.45
2023-05-06T05:27:19.735Z,1.55
2023-05-06T05:29:46.789Z,1.77
2023-05-06T05:32:14.082Z,1.60
2023-05-06T05:34:41.194Z,1.60
2023-05-06T05:37:08.363Z,1.10
2023-05-06T05:39:35.530Z,1.08
2023-05-06T05:42:02.643Z,1.05
2023-05-06T05:44:29.884Z,1.10
2023-05-06T05:46:57.290Z,1.10
2023-05-06T05:49:24.457Z,0.80
2023-05-06T05:51:51.540Z,0.90
2023-05-06T05:54:18.572Z,1.00
2023-05-06T05:56:45.667Z,0.80
2023-05-06T05:59:12.815Z,1.02
2023-05-06T06:01:39.881Z,1.02
2023-05-06T06:04:07.107Z,1.17
2023-05-06T06:06:34.311Z,1.25
2023-05-06T06:09:01.492Z,2.88
2023-05-06T06:11:29.168Z,2.90
2023-05-06T06:13:56.364Z,2.80
2023-05-06T06:16:23.538Z,2.75
2023-05-06T06:18:51.194Z,1.90
2023-05-06T06:21:18.230Z,2.17
2023-05-06T06:23:45.290Z,2.00
2023-05-06T06:26:12.988Z,1.60
2023-05-06T06:28:40.358Z,1.67
2023-05-06T06:31:07.397Z,1.75
2023-05-06T06:33:34.543Z,1.70
2023-05-06T06:36:01.571Z,2.03
2023-05-06T06:38:28.755Z,1.65
2023-05-06T06:40:55.827Z,1.50
2023-05-06T06:43:24.148Z,1.52
2023-05-06T06:45:51.366Z,1.40
2023-05-06T06:48:19.984Z,1.50
2023-05-06T06:50:47.081Z,1.55
2023-05-06T06:53:14.280Z,1.80
2023-05-06T06:55:48.115Z,1.88
2023-05-06T07:00:42.152Z,1.27
2023-05-06T07:03:09.246Z,1.30
2023-05-06T07:05:36.344Z,1.42
2023-05-06T07:08:04.213Z,1.33
2023-05-06T07:10:31.285Z,1.50
2023-05-06T07:12:58.664Z,1.30
2023-05-06T07:15:26.093Z,1.60
2023-05-06T07:17:53.198Z,1.35
2023-05-06T07:20:20.378Z,1.17
2023-05-06T07:22:48.192Z,1.30
2023-05-06T07:25:15.445Z,1.40
2023-05-06T07:27:42.456Z,1.10
2023-05-06T07:30:10.100Z,1.10
2023-05-06T07:32:37.478Z,1.08
2023-05-06T07:35:05.946Z,1.00
2023-05-06T07:37:33.482Z,1.23
2023-05-06T07:40:00.513Z,1.17
2023-05-06T07:42:27.523Z,0.90
2023-05-06T07:44:54.614Z,1.20
2023-05-06T07:47:30.309Z,0.90
2023-05-06T07:49:57.915Z,1.30
2023-05-06T07:52:25.092Z,1.30
2023-05-06T07:54:52.293Z,0.90
2023-05-06T07:57:19.540Z,0.93
2023-05-06T07:59:51.429Z,1.00
2023-05-06T08:02:19.039Z,0.95
2023-05-06T08:04:47.005Z,1.02
2023-05-06T08:07:16.086Z,1.15
2023-05-06T08:09:43.160Z,0.93
2023-05-06T08:12:10.460Z,1.02
2023-05-06T08:14:37.588Z,0.90
2023-05-06T08:17:04.820Z,1.00
2023-05-06T08:19:32.146Z,1.10
2023-05-06T08:21:59.265Z,1.00
2023-05-06T08:24:26.629Z,1.15
2023-05-06T08:26:53.676Z,0.98
2023-05-06T08:29:20.896Z,1.10
2023-05-06T08:31:48.090Z,0.80
2023-05-06T08:34:19.022Z,1.20
2023-05-06T08:36:46.076Z,3.20
2023-05-06T08:39:14.791Z,2.50
2023-05-06T08:41:50.537Z,2.03
2023-05-06T08:44:19.480Z,1.35
2023-05-06T08:46:47.335Z,1.10
2023-05-06T08:49:14.846Z,2.60
2023-05-06T08:51:44.597Z,2.25
2023-05-06T08:54:13.718Z,1.30
2023-05-06T08:56:46.141Z,1.25
2023-05-06T08:59:14.534Z,1.15
2023-05-06T09:01:41.646Z,1.10
2023-05-06T09:04:09.357Z,1.60
2023-05-06T09:06:36.691Z,1.20
2023-05-06T09:09:03.986Z,1.05
2023-05-06T09:11:31.162Z,1.17
2023-05-06T09:14:10.999Z,1.20
2023-05-06T09:16:38.696Z,1.30
2023-05-06T09:19:06.314Z,1.40
2023-05-06T09:21:38.754Z,1.60
2023-05-06T09:24:07.507Z,1.67
2023-05-06T09:26:36.865Z,1.10
2023-05-06T09:29:05.705Z,1.10
2023-05-06T09:31:33.280Z,1.02
2023-05-06T09:34:01.373Z,1.00
2023-05-06T09:36:29.642Z,1.13
2023-05-06T09:38:57.288Z,1.50
2023-05-06T09:41:25.822Z,1.42
2023-05-06T09:43:57.107Z,1.23
2023-05-06T09:46:25.774Z,1.50
2023-05-06T09:48:56.199Z,1.77
2023-05-06T09:51:23.342Z,1.30
2023-05-06T09:53:51.658Z,1.38
2023-05-06T09:56:21.624Z,0.80
2023-05-06T09:58:50.467Z,0.90
2023-05-06T10:01:32.799Z,0.80
2023-05-06T10:04:08.828Z,1.35
2023-05-06T10:06:39.954Z,1.50
2023-05-06T10:09:09.938Z,1.33
2023-05-06T10:11:37.321Z,1.30
2023-05-06T10:14:04.761Z,1.20
2023-05-06T10:16:37.374Z,1.10
2023-05-06T10:19:06.930Z,1.08
2023-05-06T10:21:38.501Z,0.98
2023-05-06T10:24:12.032Z,1.13
2023-05-06T10:26:41.217Z,1.20
2023-05-06T10:29:11.036Z,1.30
2023-05-06T10:31:46.630Z,1.40
2023-05-06T10:34:13.993Z,1.20
2023-05-06T10:36:43.980Z,1.05
2023-05-06T10:39:14.427Z,1.02
2023-05-06T10:41:43.099Z,1.20
2023-05-06T10:44:10.371Z,1.20
2023-05-06T10:47:06.762Z,1.27
2023-05-06T10:49:33.879Z,1.10
2023-05-06T10:52:14.956Z,1.52
2023-05-06T10:54:50.955Z,1.00
2023-05-06T10:57:18.621Z,1.05
2023-05-06T10:59:49.516Z,1.25
2023-05-06T11:02:20.990Z,0.82
2023-05-06T11:04:53.358Z,0.90
2023-05-06T11:07:25.082Z,0.90
2023-05-06T11:10:00.387Z,0.88
2023-05-06T11:12:53.075Z,1.27
2023-05-06T11:15:28.020Z,1.10
2023-05-06T11:17:57.265Z,0.90
2023-05-06T11:20:27.763Z,0.93
2023-05-06T11:22:55.018Z,0.80
2023-05-06T11:25:41.808Z,1.00
2023-05-06T11:28:11.890Z,1.02
2023-05-06T11:30:43.258Z,0.90
2023-05-06T11:33:21.593Z,0.93
2023-05-06T11:35:48.869Z,0.73
2023-05-06T11:38:15.952Z,0.93
2023-05-06T11:40:43.070Z,0.93
2023-05-06T11:43:14.823Z,1.00
2023-05-06T11:45:48.430Z,1.13
2023-05-06T11:50:49.570Z,0.98
2023-05-06T11:53:22.109Z,0.90
2023-05-06T11:55:50.490Z,0.90
2023-05-06T11:58:24.725Z,0.70
2023-05-06T12:00:56.139Z,1.00
2023-05-06T12:03:25.015Z,0.90
2023-05-06T12:05:52.776Z,0.90
2023-05-06T12:08:28.274Z,0.73
2023-05-06T12:10:59.578Z,1.00
2023-05-06T12:13:28.636Z,1.00
2023-05-06T12:15:57.637Z,1.25
2023-05-06T12:18:25.572Z,1.20
2023-05-06T12:20:56.954Z,1.13
2023-05-06T12:23:24.055Z,1.30
2023-05-06T12:26:05.170Z,1.00
2023-05-06T12:28:33.964Z,1.10
2023-05-06T12:31:17.852Z,0.90
2023-05-06T12:36:12.979Z,0.98
2023-05-06T12:38:49.643Z,1.30
2023-05-06T12:41:16.749Z,1.00
2023-05-06T12:43:43.837Z,1.20
2023-05-06T12:46:13.212Z,1.27
2023-05-06T12:48:41.989Z,1.17
2023-05-06T12:51:20.152Z,1.00
2023-05-06T12:53:47.277Z,1.00
2023-05-06T12:56:14.497Z,0.90
2023-05-06T12:58:41.571Z,1.13
2023-05-06T13:01:08.765Z,1.10
2023-05-06T13:03:41.367Z,1.00
2023-05-06T13:06:08.592Z,1.10
2023-05-06T13:08:36.365Z,1.02
2023-05-06T13:11:03.515Z,0.80
2023-05-06T13:13:31.201Z,0.90
2023-05-06T13:15:58.275Z,1.05
2023-05-06T13:18:25.440Z,1.10
2023-05-06T13:20:52.500Z,1.00
2023-05-06T13:23:19.780Z,1.30
2023-05-06T13:26:00.721Z,1.20
2023-05-06T13:28:32.925Z,1.58
2023-05-06T13:31:00.369Z,1.40
2023-05-06T13:33:27.436Z,1.30
2023-05-06T13:35:54.697Z,1.20
2023-05-06T13:38:22.307Z,1.27
2023-05-06T13:40:51.899Z,1.20
2023-05-06T13:43:25.270Z,1.40
2023-05-06T13:45:53.171Z,1.30
2023-05-06T13:48:20.239Z,1.55
2023-05-06T13:50:48.177Z,1.30
2023-05-06T13:53:15.686Z,1.10
2023-05-06T13:55:43.776Z,1.55
2023-05-06T13:58:11.539Z,1.30
2023-05-06T14:00:38.867Z,1.35
2023-05-06T14:03:06.644Z,1.27
2023-05-06T14:05:33.827Z,1.20
2023-05-06T14:08:00.873Z,1.10
2023-05-06T14:10:28.349Z,1.20
2023-05-06T14:12:55.512Z,1.17
2023-05-06T14:15:22.658Z,1.10
2023-05-06T14:17:50.024Z,1.30
2023-05-06T14:20:17.168Z,1.05
2023-05-06T14:22:44.271Z,1.30
2023-05-06T14:25:11.826Z,1.42
2023-05-06T14:27:39.493Z,1.40
2023-05-06T14:30:09.256Z,1.27
2023-05-06T14:32:37.316Z,1.40
2023-05-06T14:35:04.964Z,1.70
2023-05-06T14:37:32.062Z,1.40
2023-05-06T14:39:59.120Z,1.50
2023-05-06T14:42:26.251Z,1.35
2023-05-06T14:44:53.374Z,1.60
2023-05-06T14:47:20.432Z,1.63
2023-05-06T14:49:47.864Z,1.48
2023-05-06T14:52:15.145Z,1.48
2023-05-06T14:54:42.903Z,1.45
2023-05-06T14:57:10.331Z,1.23
2023-05-06T14:59:38.619Z,1.92
2023-05-06T15:02:08.808Z,1.90
2023-05-06T15:04:36.924Z,1.38
2023-05-06T15:07:07.576Z,1.50
2023-05-06T15:09:43.254Z,1.58
2023-05-06T15:12:13.970Z,1.30
2023-05-06T15:14:41.630Z,1.50
2023-05-06T15:17:08.741Z,1.35
2023-05-06T15:19:36.021Z,1.40
2023-05-06T15:22:03.834Z,2.13
2023-05-06T15:24:30.831Z,1.58
2023-05-06T15:26:58.012Z,1.45
2023-05-06T15:29:25.221Z,1.60
2023-05-06T15:31:52.286Z,1.90
2023-05-06T15:34:20.958Z,1.63
2023-05-06T15:36:53.211Z,1.90
2023-05-06T15:39:20.607Z,1.67
2023-05-06T15:41:48.369Z,1.65
2023-05-06T15:44:16.354Z,1.75
2023-05-06T15:46:43.793Z,1.73
2023-05-06T15:49:39.671Z,1.90
2023-05-06T15:52:00.548Z,1.50
2023-05-06T15:54:29.392Z,1.67
2023-05-06T15:56:57.038Z,1.55
2023-05-06T15:59:24.180Z,1.70
2023-05-06T16:02:25.661Z,1.67
2023-05-06T16:04:38.882Z,1.35
2023-05-06T16:07:06.177Z,2.08
2023-05-06T16:09:33.263Z,1.70
2023-05-06T16:12:00.293Z,1.70
2023-05-06T16:14:27.364Z,1.63
2023-05-06T16:16:54.467Z,1.80
2023-05-06T16:19:21.572Z,1.90
2023-05-06T16:21:48.673Z,2.20
2023-05-06T16:24:16.271Z,1.80
2023-05-06T16:26:43.477Z,1.80
2023-05-06T16:29:10.630Z,1.90
2023-05-06T16:31:38.168Z,1.90
2023-05-06T16:34:05.640Z,1.83
2023-05-06T16:36:32.875Z,1.90
2023-05-06T16:38:59.951Z,1.75
2023-05-06T16:41:26.979Z,2.15
2023-05-06T16:43:54.862Z,1.80
2023-05-06T16:46:24.288Z,1.45
2023-05-06T16:48:53.367Z,1.60
2023-05-06T16:51:20.776Z,1.60
2023-05-06T16:53:47.996Z,1.73
2023-05-06T16:56:15.061Z,1.80
2023-05-06T16:58:43.000Z,1.92
2023-05-06T17:01:10.257Z,1.70
2023-05-06T17:03:38.522Z,1.77
2023-05-06T17:06:05.978Z,1.52
2023-05-06T17:08:36.433Z,1.80
2023-05-06T17:11:07.335Z,1.90
2023-05-06T17:13:35.055Z,1.88
2023-05-06T17:16:02.198Z,2.38
2023-05-06T17:18:29.823Z,2.05
2023-05-06T17:20:57.590Z,2.05
2023-05-06T17:23:25.465Z,2.40
2023-05-06T17:25:52.776Z,2.15
2023-05-06T17:28:19.861Z,2.00
2023-05-06T17:30:47.198Z,2.40
2023-05-06T17:33:14.386Z,2.00
2023-05-06T17:35:41.454Z,2.33
2023-05-06T17:38:10.379Z,2.53
2023-05-06T17:40:37.783Z,2.85
2023-05-06T17:43:05.144Z,3.08
2023-05-06T17:45:32.332Z,2.85
2023-05-06T17:47:59.531Z,2.65
2023-05-06T17:50:26.739Z,3.05
2023-05-06T17:52:54.772Z,3.00
2023-05-06T17:55:22.536Z,2.83
2023-05-06T17:57:50.023Z,3.10
2023-05-06T18:00:17.314Z,3.05
2023-05-06T18:02:45.152Z,2.95
2023-05-06T18:05:13.746Z,2.95
2023-05-06T18:07:41.256Z,3.03
2023-05-06T18:10:08.913Z,3.00
2023-05-06T18:12:36.255Z,2.92
2023-05-06T18:15:03.440Z,3.17
2023-05-06T18:17:30.484Z,3.05
2023-05-06T18:19:57.961Z,3.00
2023-05-06T18:22:25.081Z,2.90
2023-05-06T18:24:55.618Z,3.35
2023-05-06T18:27:23.548Z,3.20
2023-05-06T18:29:50.633Z,3.58
2023-05-06T18:32:18.514Z,3.33
2023-05-06T18:34:45.718Z,3.30
2023-05-06T18:37:12.878Z,3.13
2023-05-06T18:39:42.014Z,3.42
2023-05-06T18:42:10.116Z,3.70
2023-05-06T18:44:37.671Z,3.30
2023-05-06T18:47:04.773Z,3.70
2023-05-06T18:49:32.240Z,3.67
2023-05-06T18:51:59.474Z,3.15
2023-05-06T18:54:26.545Z,3.28
2023-05-06T18:56:54.206Z,3.47
2023-05-06T18:59:21.887Z,3.50
2023-05-06T19:01:49.015Z,3.17
2023-05-06T19:04:16.545Z,3.58
2023-05-06T19:06:43.768Z,3.67
2023-05-06T19:09:11.556Z,3.80
2023-05-06T19:11:39.216Z,3.45
2023-05-06T19:14:06.326Z,3.30
2023-05-06T19:16:33.474Z,3.40
2023-05-06T19:19:02.790Z,3.17
2023-05-06T19:21:29.941Z,3.55
2023-05-06T19:24:00.049Z,3.75
2023-05-06T19:26:30.117Z,2.97
2023-05-06T19:28:57.381Z,3.28
2023-05-06T19:31:24.481Z,3.78
2023-05-06T19:33:51.605Z,3.22
2023-05-06T19:36:18.710Z,3.38
2023-05-06T19:38:45.771Z,3.28
2023-05-06T19:41:13.448Z,3.45
2023-05-06T19:43:42.318Z,4.10
2023-05-06T19:46:10.373Z,3.33
2023-05-06T19:48:39.158Z,3.95
2023-05-06T19:51:07.070Z,3.63
2023-05-06T19:53:34.853Z,3.80
2023-05-06T19:56:14.614Z,3.60
2023-05-06T19:58:41.669Z,3.28
2023-05-06T20:01:09.210Z,3.58
2023-05-06T20:03:36.515Z,4.05
2023-05-06T20:06:04.129Z,3.88
2023-05-06T20:08:31.393Z,4.18
2023-05-06T20:10:58.465Z,3.70
2023-05-06T20:13:26.282Z,4.07
2023-05-06T20:15:54.357Z,3.83
2023-05-06T20:18:21.463Z,4.20
2023-05-06T20:20:48.592Z,3.53
2023-05-06T20:23:15.700Z,4.28
2023-05-06T20:25:42.726Z,4.18
2023-05-06T20:28:10.162Z,4.15
2023-05-06T20:30:38.742Z,5.50
2023-05-06T20:33:06.162Z,5.13
2023-05-06T20:35:38.551Z,4.15
2023-05-06T20:38:06.719Z,4.72
2023-05-06T20:40:35.964Z,5.05
2023-05-06T20:43:03.217Z,4.43
2023-05-06T20:45:31.689Z,4.90
2023-05-06T20:47:59.072Z,5.25
2023-05-06T20:50:26.307Z,5.07
2023-05-06T20:52:54.673Z,5.32
2023-05-06T20:55:23.664Z,4.45
2023-05-06T20:57:51.132Z,4.50
2023-05-06T21:00:19.189Z,4.13
2023-05-06T21:02:46.486Z,4.93
2023-05-06T21:05:13.872Z,4.40
2023-05-06T21:07:41.431Z,5.03
2023-05-06T21:10:10.160Z,3.50
2023-05-06T21:12:37.569Z,4.22
2023-05-06T21:15:05.217Z,3.65
2023-05-06T21:17:32.401Z,3.53
2023-05-06T21:19:59.457Z,3.35
2023-05-06T21:22:26.616Z,3.72
2023-05-06T21:24:53.747Z,3.03
2023-05-06T21:27:20.904Z,3.15
2023-05-06T21:29:47.991Z,2.85
2023-05-06T21:32:15.213Z,2.83
2023-05-06T21:34:42.265Z,2.53
2023-05-06T21:37:09.514Z,3.35
2023-05-06T21:39:36.587Z,2.88
2023-05-06T21:42:03.670Z,2.85
2023-05-06T21:44:30.954Z,2.60
2023-05-06T21:46:57.981Z,3.00
2023-05-06T21:49:25.074Z,2.55
2023-05-06T21:51:52.145Z,3.03
2023-05-06T21:54:19.333Z,2.80
2023-05-06T21:56:46.662Z,2.70
2023-05-06T21:59:13.760Z,2.95
2023-05-06T22:01:40.814Z,2.30
2023-05-06T22:04:13.068Z,2.80
2023-05-06T22:06:40.692Z,2.30
2023-05-06T22:09:09.867Z,2.22
2023-05-06T22:11:41.301Z,2.08
2023-05-06T22:14:08.472Z,2.78
2023-05-06T22:16:38.082Z,2.42
2023-05-06T22:19:05.985Z,2.63
2023-05-06T22:21:36.706Z,2.42
2023-05-06T22:24:03.876Z,2.20
2023-05-06T22:26:33.144Z,3.03
2023-05-06T22:29:00.364Z,2.33
2023-05-06T22:31:27.476Z,2.30
2023-05-06T22:33:58.040Z,2.50
2023-05-06T22:36:29.845Z,2.53
2023-05-06T22:38:56.959Z,2.28
2023-05-06T22:41:24.066Z,2.58
2023-05-06T22:43:51.252Z,2.20
2023-05-06T22:46:18.681Z,2.30
2023-05-06T22:48:46.512Z,2.22
2023-05-06T22:51:16.624Z,2.67
2023-05-06T22:53:43.959Z,2.33
2023-05-06T22:56:11.449Z,2.20
2023-05-06T22:58:38.800Z,2.28
2023-05-06T23:01:07.589Z,2.67
2023-05-06T23:03:36.028Z,2.97
2023-05-06T23:06:04.713Z,3.08
2023-05-06T23:08:31.860Z,3.00
2023-05-06T23:10:58.982Z,3.13
2023-05-06T23:13:26.838Z,2.40
2023-05-06T23:15:54.038Z,3.28
2023-05-06T23:18:21.134Z,2.95
2023-05-06T23:20:48.386Z,2.60
2023-05-06T23:23:15.475Z,2.80
2023-05-06T23:25:42.555Z,2.80
2023-05-06T23:28:09.590Z,2.67
2023-05-06T23:30:36.714Z,2.50
2023-05-06T23:33:04.087Z,2.95
2023-05-06T23:35:31.170Z,2.80
2023-05-06T23:37:58.654Z,2.60
2023-05-06T23:40:25.763Z,3.38
2023-05-06T23:42:52.815Z,3.33
2023-05-06T23:45:20.821Z,2.60
2023-05-06T23:47:47.915Z,2.88
2023-05-06T23:50:15.112Z,2.67
2023-05-06T23:52:42.285Z,2.33
2023-05-06T23:55:09.808Z,2.70
2023-05-06T23:57:37.035Z,3.00
